Terminal Aerodrome Forecast
Issued by NWS

Home | Current Version | Previous Version | Text Only | Print | Product List | Glossary On
Versions: 1 2 3 4 5 6 7 8 9 10 11 12 13 14 15 16 17 18
000
FTUS43 KDLH 232200 AAB
TAFBRD
TAF AMD
KBRD 232221Z 2322/2418 14010KT 6SM -RA SCT025 OVC035
      TEMPO 2322/2401 4SM -RA OVC025
     FM240100 13010KT 5SM -RA BR OVC025
     FM240400 12011KT P6SM -RA SCT007 OVC015
     FM241500 13009KT 3SM -RA OVC007=

USA.gov is the U.S. government's official web portal to all federal, state and local government web resources and services.